Time;durP1;ratioP1;P1;durP2;ratioP2;P2;SDS_P1;SDS_P2;PMS_P1;PMS_P2;Temp;Humidity;BMP_temperature;BMP_pressure;BME280_temperature;BME280_humidity;BME280_pressure;Samples;Min_cycle;Max_cycle;Signal;HPM_P1;HPM_P2
2021/03/27 00:00:35;;;;;;;38.05;22.05;;;;;;;6.06;64.88;100102.77;1737633;82;21182;-69
2021/03/27 00:03:27;;;;;;;43.28;26.57;;;;;;;6.01;64.88;100093.80;1758482;81;21349;-66
2021/03/27 00:06:06;;;;;;;41.60;24.47;;;;;;;6.04;64.80;100095.44;1737264;82;21304;-66
2021/03/27 00:08:45;;;;;;;45.80;25.40;;;;;;;6.23;64.42;100087.09;1758695;81;21314;-66
2021/03/27 00:11:44;;;;;;;41.37;24.95;;;;;;;6.22;64.49;100088.48;1737717;82;21158;-68
2021/03/27 00:14:44;;;;;;;37.20;22.75;;;;;;;6.17;64.58;100084.73;1758369;81;21204;-67
2021/03/27 00:17:33;;;;;;;40.50;22.62;;;;;;;6.11;64.65;100085.50;1735161;82;21194;-67
2021/03/27 00:20:07;;;;;;;41.75;23.07;;;;;;;5.70;64.94;100034.81;1758522;81;21682;-67
2021/03/27 00:22:52;;;;;;;33.15;21.25;;;;;;;5.87;65.24;100083.03;1737111;82;21687;-66
2021/03/27 00:25:35;;;;;;;34.98;20.90;;;;;;;5.81;65.45;100082.02;1758658;81;21592;-66
2021/03/27 00:28:17;;;;;;;36.73;22.55;;;;;;;5.78;65.60;100083.45;1737630;82;21150;-66
2021/03/27 00:30:50;;;;;;;38.45;21.33;;;;;;;5.76;65.74;100085.31;1758477;81;21301;-66
2021/03/27 00:33:21;;;;;;;36.17;21.85;;;;;;;5.85;65.51;100080.95;1737974;82;21333;-66
2021/03/27 00:35:59;;;;;;;34.20;20.30;;;;;;;6.05;65.21;100093.20;1754516;81;21642;-67
2021/03/27 00:38:40;;;;;;;35.35;20.97;;;;;;;6.07;65.05;100083.47;1740930;82;21142;-66
2021/03/27 00:41:15;;;;;;;31.62;19.92;;;;;;;6.04;65.07;100088.40;1750953;82;21814;-66
2021/03/27 00:43:57;;;;;;;34.98;20.30;;;;;;;6.00;65.31;100080.75;1741066;82;21135;-67
2021/03/27 00:46:25;;;;;;;30.62;18.30;;;;;;;5.96;65.43;100081.32;1751106;82;21167;-66
2021/03/27 00:49:03;;;;;;;30.70;18.10;;;;;;;5.93;65.39;100084.06;1713785;82;21155;-67
2021/03/27 00:51:53;;;;;;;31.30;18.27;;;;;;;5.87;65.46;100086.52;1750431;82;21112;-66
2021/03/27 00:54:28;;;;;;;33.75;20.48;;;;;;;5.84;65.54;100080.55;1740399;82;21174;-66
2021/03/27 00:57:23;;;;;;;30.17;16.17;;;;;;;5.80;65.66;100082.94;1723116;82;21321;-66
2021/03/27 01:00:17;;;;;;;30.85;16.97;;;;;;;5.77;65.84;100081.74;1740623;82;21638;-66
2021/03/27 01:03:09;;;;;;;32.67;19.32;;;;;;;5.86;65.71;100086.60;1671881;86;21237;-67
2021/03/27 01:05:57;;;;;;;32.45;17.65;;;;;;;5.96;65.49;100088.33;1714130;83;21205;-67
2021/03/27 01:08:46;;;;;;;31.57;21.00;;;;;;;5.92;65.70;100079.77;1765008;79;28291;-67
2021/03/27 01:11:34;;;;;;;29.80;19.00;;;;;;;6.04;65.40;100082.31;1750602;81;21159;-67
2021/03/27 01:14:08;;;;;;;34.48;19.80;;;;;;;6.21;64.90;100081.52;1723075;83;21288;-67
2021/03/27 01:16:41;;;;;;;31.62;19.35;;;;;;;6.20;64.81;100086.38;1681660;83;21135;-66
2021/03/27 01:19:15;;;;;;;31.05;19.20;;;;;;;6.17;64.79;100085.22;1723167;83;21147;-67
2021/03/27 01:21:46;;;;;;;31.60;19.25;;;;;;;6.16;64.74;100094.02;1723057;83;21154;-66
2021/03/27 01:24:17;;;;;;;32.70;19.90;;;;;;;6.18;64.63;100086.92;1723047;83;21186;-66
2021/03/27 01:26:51;;;;;;;31.70;20.05;;;;;;;6.31;64.32;100081.47;1681187;83;21344;-66
2021/03/27 01:29:34;;;;;;;31.27;18.10;;;;;;;6.32;64.30;100081.86;1723326;83;21635;-66
2021/03/27 01:32:28;;;;;;;31.25;18.17;;;;;;;6.27;64.36;100083.86;1723007;83;21202;-67
2021/03/27 01:35:23;;;;;;;;;;;;;;;6.19;64.42;100081.59;1725827;83;21167;-66
2021/03/27 01:37:54;;;;;;;31.90;18.95;;;;;;;6.12;64.60;100091.14;1723258;83;20252;-67
2021/03/27 01:40:35;;;;;;;34.63;19.80;;;;;;;6.00;64.90;100089.47;1723302;82;21645;-66
2021/03/27 01:43:26;;;;;;;35.33;20.05;;;;;;;5.91;65.04;100093.80;1723132;82;21187;-66
2021/03/27 01:46:29;;;;;;;32.05;19.23;;;;;;;5.83;65.25;100091.97;1698371;83;21183;-66
2021/03/27 01:49:19;;;;;;;33.92;19.55;;;;;;;5.79;65.41;100094.34;1706153;84;21342;-66
2021/03/27 01:52:04;;;;;;;33.10;19.92;;;;;;;5.89;65.37;100087.28;1719264;83;21148;-67
2021/03/27 01:54:58;;;;;;;33.42;19.98;;;;;;;6.09;65.00;100087.33;1720686;83;21163;-66
2021/03/27 01:57:39;;;;;;;31.57;19.30;;;;;;;6.06;65.14;100089.19;1720609;83;21336;-66
2021/03/27 02:00:24;;;;;;;33.13;18.92;;;;;;;5.99;65.18;100089.07;1695055;83;21191;-67
2021/03/27 02:03:21;;;;;;;30.62;18.55;;;;;;;5.91;65.35;100085.92;1720845;83;21099;-66
2021/03/27 02:06:05;;;;;;;34.00;19.85;;;;;;;5.84;65.41;100093.68;1720716;83;21170;-66
2021/03/27 02:08:56;;;;;;;27.55;17.07;;;;;;;5.72;65.62;100095.09;1708140;83;21617;-67
2021/03/27 02:11:51;;;;;;;31.93;18.77;;;;;;;5.66;65.80;100102.76;1709431;82;21181;-66
2021/03/27 02:14:57;;;;;;;37.15;20.72;;;;;;;5.57;66.03;100094.83;1694291;84;21144;-66
2021/03/27 02:17:37;;;;;;;36.30;20.45;;;;;;;5.54;66.21;100098.08;1710571;84;21191;-66
2021/03/27 02:20:25;;;;;;;32.53;20.02;;;;;;;5.68;65.93;100101.41;1709843;84;21208;-66
2021/03/27 02:23:04;;;;;;;38.70;22.55;;;;;;;5.85;65.63;100099.33;1709881;84;21309;-66
2021/03/27 02:26:15;;;;;;;39.48;22.90;;;;;;;5.85;65.58;100100.17;1710074;84;21152;-66
2021/03/27 02:29:00;;;;;;;41.70;23.02;;;;;;;5.85;65.58;100103.27;1710032;84;21326;-66
2021/03/27 02:31:40;;;;;;;38.40;21.75;;;;;;;5.83;65.47;100105.09;1709671;83;21298;-66
2021/03/27 02:34:25;;;;;;;35.88;22.45;;;;;;;5.83;65.32;100109.03;1709747;84;21176;-66
2021/03/27 02:37:18;;;;;;;38.95;23.77;;;;;;;5.80;65.27;100110.49;1704005;84;21609;-66
2021/03/27 02:40:03;;;;;;;46.50;27.42;;;;;;;5.79;65.30;100103.53;1709843;82;21154;-67
2021/03/27 02:42:38;;;;;;;58.73;31.45;;;;;;;5.72;65.45;100099.87;1709685;83;21171;-66
2021/03/27 02:45:17;;;;;;;66.40;34.10;;;;;;;5.80;65.41;100097.38;1709904;84;22059;-66
2021/03/27 02:47:52;;;;;;;58.58;33.23;;;;;;;5.96;65.14;100099.70;1709763;84;21338;-66
2021/03/27 02:50:50;;;;;;;56.95;31.48;;;;;;;5.90;65.28;100099.50;1709668;84;21148;-67
2021/03/27 02:53:55;;;;;;;63.38;32.10;;;;;;;5.83;65.46;100102.47;1709786;83;21702;-66
2021/03/27 02:56:51;;;;;;;58.28;32.48;;;;;;;5.74;65.62;100100.66;1709748;83;21148;-67
2021/03/27 02:59:54;;;;;;;56.65;30.97;;;;;;;5.69;65.82;100095.20;1710166;84;21173;-66
2021/03/27 03:02:55;;;;;;;54.35;29.30;;;;;;;5.64;65.99;100098.50;1709960;84;21612;-67
2021/03/27 03:05:29;;;;;;;65.97;34.27;;;;;;;5.55;66.29;100107.63;1709970;84;21124;-66
2021/03/27 03:08:24;;;;;;;65.72;33.00;;;;;;;5.46;66.54;100104.09;1715901;83;21832;-67
2021/03/27 03:11:09;;;;;;;64.47;34.05;;;;;;;5.55;66.42;100106.31;1723643;82;21163;-66
2021/03/27 03:13:50;;;;;;;65.97;34.33;;;;;;;5.74;66.01;100108.53;1723352;83;21309;-66
2021/03/27 03:17:18;;;;;;;66.57;33.15;;;;;;;5.69;66.11;100111.83;1723425;83;21131;-66
2021/03/27 03:20:15;;;;;;;52.62;28.83;;;;;;;5.62;66.35;100113.00;1723314;83;21174;-66
2021/03/27 03:23:06;;;;;;;58.48;31.68;;;;;;;5.54;66.42;100112.03;1723539;83;21276;-66
2021/03/27 03:25:35;;;;;;;55.65;30.65;;;;;;;5.46;66.49;100119.84;1723583;83;21607;-66
2021/03/27 03:28:32;;;;;;;53.48;29.37;;;;;;;5.39;66.62;100125.34;1723435;83;21150;-66
2021/03/27 03:31:16;;;;;;;51.58;29.37;;;;;;;5.36;66.86;100120.71;1723529;83;21309;-66
2021/03/27 03:34:20;;;;;;;55.85;29.12;;;;;;;5.29;67.03;100113.54;1723624;83;21163;-68
2021/03/27 03:37:02;;;;;;;54.40;28.57;;;;;;;5.33;67.01;100116.45;1723541;83;21186;-69
2021/03/27 03:40:02;;;;;;;55.92;29.52;;;;;;;5.50;66.66;100120.09;1723370;82;21163;-68
2021/03/27 03:42:58;;;;;;;49.03;28.32;;;;;;;5.43;66.77;100127.85;1722849;83;21119;-68
2021/03/27 03:45:49;;;;;;;56.10;30.15;;;;;;;5.32;67.04;100126.55;1723407;83;21171;-68
2021/03/27 03:48:45;;;;;;;62.35;32.50;;;;;;;5.30;67.04;100119.66;1723422;83;21194;-69
2021/03/27 03:51:33;;;;;;;81.85;41.15;;;;;;;5.27;67.16;100121.08;1722977;83;21336;-67
2021/03/27 03:54:18;;;;;;;101.55;45.28;;;;;;;5.24;67.19;100128.62;1723357;83;21163;-68
2021/03/27 03:57:08;;;;;;;80.12;42.20;;;;;;;5.19;67.27;100129.27;1723835;83;21211;-66
2021/03/27 04:00:11;;;;;;;75.52;36.93;;;;;;;5.14;67.42;100124.68;1702395;83;21195;-67
2021/03/27 04:02:56;;;;;;;67.27;37.73;;;;;;;5.19;67.23;100126.21;1723331;83;21139;-67
2021/03/27 04:05:37;;;;;;;70.83;40.85;;;;;;;5.39;66.82;100125.81;1712295;83;21147;-66
2021/03/27 04:08:30;;;;;;;71.07;40.80;;;;;;;5.37;66.92;100122.39;1722447;83;21183;-66
2021/03/27 04:11:01;;;;;;;62.93;35.55;;;;;;;5.31;67.10;100123.98;1723540;82;21163;-67
2021/03/27 04:13:46;;;;;;;57.55;34.23;;;;;;;5.28;67.25;100130.66;1723223;83;21135;-66
2021/03/27 04:16:18;;;;;;;56.65;33.05;;;;;;;5.26;67.29;100128.11;1723413;83;21174;-66
2021/03/27 04:18:58;;;;;;;55.92;32.17;;;;;;;5.26;67.28;100128.11;1723348;83;21171;-66
2021/03/27 04:21:33;;;;;;;52.70;30.23;;;;;;;5.30;67.26;100134.08;1723326;83;21195;-66
2021/03/27 04:24:12;;;;;;;54.35;30.15;;;;;;;5.51;66.86;100129.67;1723216;83;21130;-66
2021/03/27 04:26:58;;;;;;;54.93;28.62;;;;;;;5.55;66.77;100127.30;1723473;83;21183;-67
2021/03/27 04:29:37;;;;;;;51.37;27.62;;;;;;;5.52;66.92;100128.28;1699240;83;21352;-66
2021/03/27 04:32:59;;;;;;;49.30;27.25;;;;;;;5.48;66.99;100127.20;1723194;83;21174;-67
2021/03/27 04:35:59;;;;;;;46.98;26.20;;;;;;;5.48;67.05;100136.38;1723519;83;21159;-66
2021/03/27 04:39:01;;;;;;;43.73;25.23;;;;;;;5.54;67.28;100137.42;1723416;82;21228;-66
2021/03/27 04:41:49;;;;;;;44.40;25.68;;;;;;;5.80;66.93;100139.37;1722991;83;21124;-66
2021/03/27 04:44:48;;;;;;;47.98;25.90;;;;;;;6.19;66.19;100147.25;1723356;83;21170;-66
2021/03/27 04:47:23;;;;;;;38.60;23.65;;;;;;;6.29;65.92;100134.55;1723403;83;21204;-66
2021/03/27 04:49:57;;;;;;;42.15;24.47;;;;;;;6.34;66.05;100139.58;1723585;83;21132;-67
2021/03/27 04:52:58;;;;;;;41.23;24.40;;;;;;;6.47;65.89;100142.48;1723615;83;21153;-68
2021/03/27 04:55:55;;;;;;;43.17;25.85;;;;;;;6.64;65.46;100138.59;1723501;83;21154;-68
2021/03/27 04:58:37;;;;;;;44.08;24.07;;;;;;;6.72;64.76;100141.70;1723332;83;21150;-66
2021/03/27 05:01:21;;;;;;;40.85;24.57;;;;;;;6.78;64.50;100139.70;1711507;83;21155;-66
2021/03/27 05:04:00;;;;;;;44.42;24.20;;;;;;;6.79;64.56;100153.23;1713542;83;21230;-66
2021/03/27 05:06:41;;;;;;;44.58;25.68;;;;;;;6.86;64.17;100158.59;1723226;83;21144;-66
2021/03/27 05:09:36;;;;;;;35.68;22.05;;;;;;;6.98;63.98;100155.83;1723278;83;21154;-66
2021/03/27 05:12:32;;;;;;;42.25;23.87;;;;;;;7.05;63.70;100150.19;1723321;82;21208;-66
2021/03/27 05:15:21;;;;;;;;;;;;;;;7.25;63.29;100159.34;1726215;83;21555;-66
2021/03/27 05:18:27;;;;;;;35.40;22.30;;;;;;;7.38;62.74;100159.13;1723253;83;20502;-66
2021/03/27 05:21:08;;;;;;;38.53;23.25;;;;;;;7.25;62.78;100162.83;1719671;83;21613;-68
2021/03/27 05:23:47;;;;;;;33.58;20.62;;;;;;;7.32;62.97;100159.42;1723232;83;21195;-66
2021/03/27 05:26:42;;;;;;;42.05;23.52;;;;;;;7.62;62.77;100162.73;1723433;83;21269;-67
2021/03/27 05:29:15;;;;;;;35.55;21.20;;;;;;;7.96;62.17;100160.50;1723316;83;21314;-66
2021/03/27 05:32:10;;;;;;;32.03;20.02;;;;;;;8.35;60.73;100159.30;1723529;83;21171;-67
2021/03/27 05:34:39;;;;;;;;;;;;;;;8.57;59.49;100160.80;1725824;83;21623;-67
2021/03/27 05:37:51;;;;;;;36.03;21.12;;;;;;;8.56;59.09;100160.89;1723187;82;20152;-67
2021/03/27 05:40:40;;;;;;;40.40;22.40;;;;;;;8.56;59.54;100164.84;1723161;83;21189;-67
2021/03/27 05:43:28;;;;;;;37.05;20.50;;;;;;;8.72;59.08;100163.50;1722967;83;21662;-67
2021/03/27 05:46:48;;;;;;;30.30;18.95;;;;;;;8.85;58.46;100164.05;1722602;83;21147;-67
2021/03/27 05:49:59;;;;;;;29.10;17.70;;;;;;;8.99;58.01;100158.44;1722671;83;21631;-67
2021/03/27 05:53:01;;;;;;;33.00;19.73;;;;;;;9.17;57.14;100160.03;1723265;83;21151;-66
2021/03/27 05:55:51;;;;;;;31.57;19.30;;;;;;;9.18;56.82;100162.19;1723394;83;21317;-66
2021/03/27 05:58:57;;;;;;;27.82;17.75;;;;;;;9.29;56.96;100166.38;1723302;83;21206;-66
2021/03/27 06:01:57;;;;;;;32.75;18.65;;;;;;;9.42;55.94;100165.67;1723519;83;21302;-67
2021/03/27 06:04:59;;;;;;;34.92;19.60;;;;;;;9.38;56.44;100165.00;1720581;82;21159;-66
2021/03/27 06:08:02;;;;;;;32.30;19.48;;;;;;;9.44;56.03;100169.92;1723326;83;21309;-67
2021/03/27 06:11:09;;;;;;;36.13;21.20;;;;;;;9.42;56.16;100163.03;1723487;82;21799;-67
2021/03/27 06:14:03;;;;;;;37.42;20.50;;;;;;;9.41;56.39;100170.11;1723253;83;21171;-66
2021/03/27 06:16:38;;;;;;;33.08;21.20;;;;;;;9.46;55.42;100164.55;1703279;83;21167;-67
2021/03/27 06:19:17;;;;;;;32.67;20.32;;;;;;;9.42;54.86;100168.31;1723519;83;21175;-67
2021/03/27 06:22:01;;;;;;;37.60;20.30;;;;;;;9.38;55.11;100166.31;1719691;83;21805;-67
2021/03/27 06:25:14;;;;;;;37.33;20.97;;;;;;;9.37;55.27;100161.97;1723594;83;21563;-66
2021/03/27 06:28:36;;;;;;;37.95;21.57;;;;;;;9.46;55.44;100164.55;1723445;83;21182;-67
2021/03/27 06:31:30;;;;;;;33.18;20.55;;;;;;;9.53;55.45;100172.49;1723329;83;21186;-67
2021/03/27 06:34:22;;;;;;;36.40;22.55;;;;;;;9.68;55.84;100173.38;1723643;83;21124;-67
2021/03/27 06:36:55;;;;;;;31.68;21.48;;;;;;;9.90;54.99;100178.66;1723505;83;21175;-68
2021/03/27 06:39:55;;;;;;;35.45;22.02;;;;;;;9.99;54.80;100176.80;1723827;83;21155;-67
2021/03/27 06:43:17;;;;;;;34.13;21.48;;;;;;;10.11;54.49;100173.38;1723160;83;21131;-67
2021/03/27 06:46:13;;;;;;;32.30;20.85;;;;;;;10.20;52.99;100177.74;1723459;83;21508;-67
2021/03/27 06:49:08;;;;;;;37.48;22.70;;;;;;;10.13;53.86;100183.89;1723351;83;21186;-67
2021/03/27 06:52:10;;;;;;;32.70;22.13;;;;;;;10.12;53.56;100186.14;1723747;83;21206;-67
2021/03/27 06:55:20;;;;;;;40.75;24.05;;;;;;;10.19;53.99;100186.13;1719091;83;21603;-68
2021/03/27 06:58:27;;;;;;;38.28;22.30;;;;;;;10.42;54.06;100187.84;1723443;83;21304;-66
2021/03/27 07:01:35;;;;;;;34.75;22.27;;;;;;;10.65;53.35;100180.64;1723291;83;21195;-67
2021/03/27 07:04:40;;;;;;;37.38;23.02;;;;;;;10.85;52.85;100181.64;1723505;83;21611;-67
2021/03/27 07:07:31;;;;;;;36.30;22.37;;;;;;;11.01;53.04;100181.47;1723313;83;21195;-68
2021/03/27 07:10:20;;;;;;;35.23;24.12;;;;;;;11.11;51.76;100183.89;1712529;82;21164;-68
2021/03/27 07:13:16;;;;;;;40.00;23.77;;;;;;;11.13;52.33;100191.27;1691022;84;21175;-67
2021/03/27 07:16:09;;;;;;;40.20;24.20;;;;;;;11.28;51.80;100177.02;1710104;84;21164;-67
2021/03/27 07:19:29;;;;;;;35.80;24.57;;;;;;;11.44;51.96;100184.77;1710175;84;21155;-67
2021/03/27 07:22:27;;;;;;;37.17;23.15;;;;;;;11.58;50.47;100186.48;1709911;84;21179;-67
2021/03/27 07:25:43;;;;;;;35.25;22.60;;;;;;;11.57;50.40;100194.55;1702112;84;21171;-68
2021/03/27 07:28:38;;;;;;;36.17;23.00;;;;;;;11.66;50.90;100187.78;1709782;84;21183;-68
2021/03/27 07:31:20;;;;;;;37.28;21.45;;;;;;;11.79;49.90;100188.63;1709848;84;21155;-68
2021/03/27 07:34:14;;;;;;;42.15;21.90;;;;;;;11.80;50.40;100192.98;1709757;84;21143;-67
2021/03/27 07:36:56;;;;;;;41.50;23.77;;;;;;;11.91;50.23;100192.26;1709997;82;21324;-67
2021/03/27 07:39:59;;;;;;;39.33;23.05;;;;;;;12.03;49.76;100194.07;1708692;84;21175;-67
2021/03/27 07:42:38;;;;;;;38.33;23.67;;;;;;;12.13;49.22;100191.18;1709972;83;21671;-68
2021/03/27 07:45:38;;;;;;;38.95;22.37;;;;;;;12.17;49.27;100197.09;1709808;84;21326;-67
2021/03/27 07:48:29;;;;;;;36.93;22.93;;;;;;;12.29;48.98;100202.03;1656425;86;21223;-67
2021/03/27 07:51:24;;;;;;;38.53;23.60;;;;;;;12.46;48.92;100196.85;1707205;84;21568;-67
2021/03/27 07:54:16;;;;;;;34.08;21.27;;;;;;;12.62;48.33;100197.45;1709803;84;21809;-67
2021/03/27 07:57:19;;;;;;;36.70;21.95;;;;;;;12.70;47.29;100191.59;1819230;79;22757;-67
2021/03/27 08:00:24;;;;;;;31.35;19.62;;;;;;;12.57;47.03;100191.62;1792689;80;21309;-67
2021/03/27 08:03:47;;;;;;;30.88;18.87;;;;;;;12.50;47.70;100193.51;1792669;80;21958;-67
2021/03/27 08:06:35;;;;;;;34.88;20.43;;;;;;;12.53;47.47;100193.28;1792851;80;21174;-67
2021/03/27 08:09:30;;;;;;;39.13;21.80;;;;;;;12.60;47.66;100191.40;1792335;80;21146;-67
2021/03/27 08:12:40;;;;;;;32.05;20.48;;;;;;;12.80;47.78;100189.13;1761427;81;21316;-67
2021/03/27 08:15:43;;;;;;;35.20;20.95;;;;;;;12.99;47.54;100189.09;1760426;81;21614;-67
2021/03/27 08:18:56;;;;;;;33.02;22.05;;;;;;;13.05;45.50;100186.83;1761017;81;21206;-66
2021/03/27 08:21:37;;;;;;;38.05;20.57;;;;;;;13.05;44.82;100189.98;1742137;81;21737;-66
2021/03/27 08:24:39;;;;;;;35.95;20.15;;;;;;;13.04;45.49;100188.28;1761402;81;21167;-66
2021/03/27 08:27:43;;;;;;;33.75;20.05;;;;;;;13.02;44.97;100188.86;1761661;81;21146;-66
2021/03/27 08:30:19;;;;;;;37.70;21.45;;;;;;;13.03;45.59;100194.08;1761351;81;21186;-66
2021/03/27 08:33:28;;;;;;;33.45;19.92;;;;;;;13.18;44.80;100185.44;1759113;81;21171;-67
2021/03/27 08:36:33;;;;;;;30.90;19.02;;;;;;;13.24;44.46;100190.30;1761557;81;21301;-67
2021/03/27 08:39:26;;;;;;;31.35;19.98;;;;;;;13.25;44.37;100185.36;1760003;81;21154;-67
2021/03/27 08:42:14;;;;;;;30.02;18.77;;;;;;;13.25;43.74;100188.02;1761269;81;21150;-67
2021/03/27 08:45:08;;;;;;;28.65;18.12;;;;;;;13.27;43.02;100182.58;1761400;81;21580;-67
2021/03/27 08:47:46;;;;;;;30.37;18.50;;;;;;;13.27;42.71;100182.58;1761679;81;21657;-67
2021/03/27 08:50:36;;;;;;;30.75;17.77;;;;;;;13.32;42.12;100176.94;1761463;81;21171;-67
2021/03/27 08:53:40;;;;;;;27.42;17.85;;;;;;;13.34;41.16;100177.64;1761426;81;21194;-67
2021/03/27 08:56:37;;;;;;;29.70;19.07;;;;;;;13.32;41.25;100167.14;1758381;81;21182;-66
2021/03/27 08:59:46;;;;;;;29.50;18.35;;;;;;;13.38;41.80;100180.50;1756684;82;21150;-66
2021/03/27 09:02:43;;;;;;;28.45;17.82;;;;;;;13.50;41.36;100162.28;1756692;82;21194;-67
2021/03/27 09:05:35;;;;;;;26.27;16.52;;;;;;;13.61;40.71;100170.77;1756400;82;21191;-67
2021/03/27 09:08:13;;;;;;;31.62;19.40;;;;;;;13.74;40.21;100173.34;1756149;81;21711;-66
2021/03/27 09:11:26;;;;;;;25.32;16.73;;;;;;;13.85;40.66;100171.16;1756221;82;21191;-67
2021/03/27 09:14:17;;;;;;;27.73;16.73;;;;;;;13.85;38.04;100167.17;1756250;82;21210;-66
2021/03/27 09:17:14;;;;;;;25.52;15.72;;;;;;;13.69;38.25;100161.72;1755986;81;21690;-68
2021/03/27 09:20:03;;;;;;;22.30;14.23;;;;;;;13.63;38.82;100158.69;1756096;82;21186;-68
2021/03/27 09:22:58;;;;;;;24.25;15.30;;;;;;;13.78;39.54;100161.50;1780207;79;22930;-68
2021/03/27 09:25:32;;;;;;;27.32;16.60;;;;;;;13.90;39.05;100152.58;1753312;81;21540;-68
2021/03/27 09:28:16;;;;;;;27.13;15.63;;;;;;;13.90;39.05;100152.58;1753423;82;21596;-68
2021/03/27 09:31:15;;;;;;;25.97;16.12;;;;;;;13.90;39.02;100157.89;1753214;82;21151;-68
2021/03/27 09:36:56;;;;;;;27.20;15.50;;;;;;;13.56;38.01;100150.35;1813311;79;22895;-67
2021/03/27 09:39:38;;;;;;;21.65;12.90;;;;;;;13.41;37.86;100157.20;1761563;81;21580;-68
2021/03/27 09:42:20;;;;;;;23.20;13.08;;;;;;;13.39;36.72;100154.30;1755328;81;21210;-67
2021/03/27 09:45:14;;;;;;;22.48;14.35;;;;;;;13.39;36.72;100154.30;1761474;81;21190;-67
2021/03/27 09:48:11;;;;;;;24.27;15.32;;;;;;;13.52;36.10;100156.38;1761560;81;21300;-67
2021/03/27 09:50:59;;;;;;;21.57;14.53;;;;;;;13.54;37.33;100166.42;1761371;81;21714;-67
2021/03/27 09:54:10;;;;;;;23.98;14.28;;;;;;;13.77;37.67;100159.80;1743407;81;21215;-67
2021/03/27 09:56:46;;;;;;;22.87;13.70;;;;;;;13.97;36.74;100157.42;1741089;81;21194;-67
2021/03/27 09:59:47;;;;;;;24.18;15.65;;;;;;;13.97;36.74;100157.42;1757658;81;21356;-67
2021/03/27 10:02:41;;;;;;;21.95;14.47;;;;;;;14.06;37.01;100153.53;1761364;81;21289;-68
2021/03/27 10:05:34;;;;;;;;;;;;;;;14.14;36.39;100151.60;1764051;81;21705;-67
2021/03/27 10:08:18;;;;;;;21.62;13.62;;;;;;;13.89;36.41;100160.68;1761534;81;20181;-67
2021/03/27 10:10:54;;;;;;;16.75;11.43;;;;;;;13.56;35.92;100157.83;1761504;81;21828;-65
2021/03/27 10:14:00;;;;;;;20.82;13.13;;;;;;;13.41;35.66;100157.67;1761220;81;21206;-67
2021/03/27 10:16:43;;;;;;;20.15;12.47;;;;;;;13.39;36.19;100155.63;1761462;81;21210;-67
2021/03/27 10:19:25;;;;;;;22.17;13.32;;;;;;;13.46;35.67;100159.98;1761714;81;21139;-67
2021/03/27 10:22:18;;;;;;;18.73;11.55;;;;;;;13.59;36.19;100156.28;1761484;81;21107;-67
2021/03/27 10:25:08;;;;;;;22.62;13.22;;;;;;;13.77;35.26;100145.17;1758142;81;21142;-67
2021/03/27 10:27:45;;;;;;;28.25;13.70;;;;;;;13.97;35.46;100148.11;1758525;81;21312;-66
2021/03/27 10:30:42;;;;;;;26.77;15.35;;;;;;;14.15;36.97;100143.16;1761233;81;21166;-67
2021/03/27 10:33:40;;;;;;;31.27;15.30;;;;;;;14.37;36.67;100145.81;1761628;81;21103;-67
2021/03/27 10:36:33;;;;;;;22.95;14.73;;;;;;;14.55;36.61;100138.63;1751822;81;21195;-67
2021/03/27 10:39:29;;;;;;;21.73;13.60;;;;;;;14.75;36.73;100147.19;1748231;82;21147;-67
2021/03/27 10:42:18;;;;;;;35.38;15.80;;;;;;;14.91;34.89;100146.80;1748272;82;21575;-68
2021/03/27 10:45:20;;;;;;;24.15;14.00;;;;;;;14.79;35.34;100138.97;1748061;82;21166;-67
2021/03/27 10:48:13;;;;;;;24.43;13.78;;;;;;;14.65;35.11;100147.58;1747718;82;21143;-67
2021/03/27 10:51:18;;;;;;;26.60;15.05;;;;;;;14.59;36.13;100145.37;1747649;82;21151;-66
2021/03/27 10:54:02;;;;;;;21.17;12.98;;;;;;;14.54;34.75;100135.59;1747576;82;21320;-68
2021/03/27 10:56:53;;;;;;;25.10;15.40;;;;;;;14.37;35.68;100139.63;1744177;82;21206;-67
2021/03/27 10:59:58;;;;;;;22.58;12.28;;;;;;;14.40;36.16;100131.41;1747721;82;21713;-67
2021/03/27 11:02:55;;;;;;;30.52;13.93;;;;;;;14.47;35.26;100132.59;1747576;82;21469;-67
2021/03/27 11:05:45;;;;;;;34.60;14.68;;;;;;;14.56;35.43;100130.50;1747600;82;21175;-69
2021/03/27 11:08:51;;;;;;;24.92;14.13;;;;;;;14.66;36.12;100127.15;1747043;82;21162;-67
2021/03/27 11:11:42;;;;;;;19.30;13.10;;;;;;;14.83;35.94;100125.26;1747727;82;21140;-67
2021/03/27 11:14:39;;;;;;;22.20;14.35;;;;;;;15.02;34.67;100126.42;1747760;82;21658;-67
2021/03/27 11:17:40;;;;;;;24.67;14.47;;;;;;;15.07;35.34;100134.88;1747829;82;21709;-67
2021/03/27 11:20:39;;;;;;;20.97;13.20;;;;;;;14.96;35.61;100129.12;1747982;82;21568;-67
2021/03/27 11:23:24;;;;;;;16.62;11.63;;;;;;;14.77;36.19;100129.78;1747907;82;21370;-67
2021/03/27 11:26:38;;;;;;;15.83;10.85;;;;;;;14.68;34.94;100122.53;1747666;82;21191;-67
2021/03/27 11:29:52;;;;;;;16.80;10.50;;;;;;;14.64;34.20;100117.97;1748041;82;21187;-66
2021/03/27 11:32:33;;;;;;;16.27;10.77;;;;;;;14.72;34.01;100122.66;1747543;82;21199;-67
2021/03/27 11:35:19;;;;;;;20.17;11.73;;;;;;;14.81;32.76;100116.58;1747219;82;21616;-67
2021/03/27 11:38:24;;;;;;;18.05;11.45;;;;;;;14.83;32.45;100108.45;1747561;82;21240;-67
2021/03/27 11:41:34;;;;;;;29.20;17.05;;;;;;;14.89;33.37;100109.28;1747653;82;21155;-67
2021/03/27 11:44:23;;;;;;;23.87;13.90;;;;;;;15.02;33.07;100114.43;1747422;82;21155;-67
2021/03/27 11:47:22;;;;;;;19.45;12.90;;;;;;;15.07;33.52;100109.56;1747810;82;21159;-67
2021/03/27 11:50:07;;;;;;;20.80;13.22;;;;;;;15.13;33.84;100107.73;1746299;82;21302;-68
2021/03/27 11:52:45;;;;;;;21.65;13.62;;;;;;;15.01;33.55;100103.41;1747832;82;21123;-67
2021/03/27 11:55:34;;;;;;;17.15;11.35;;;;;;;14.78;34.23;100114.14;1747506;82;21313;-66
2021/03/27 12:01:38;;;;;;;19.65;12.73;;;;;;;14.43;34.82;100118.68;1734584;82;21652;-67
2021/03/27 12:04:31;;;;;;;17.98;12.30;;;;;;;14.36;34.87;100114.84;1747574;82;21163;-67
2021/03/27 12:07:07;;;;;;;18.00;11.43;;;;;;;14.39;34.69;100120.41;1746150;82;21146;-67
2021/03/27 12:09:54;;;;;;;20.97;11.97;;;;;;;14.47;34.96;100115.79;1747387;82;21187;-67
2021/03/27 12:12:55;;;;;;;22.07;12.47;;;;;;;14.57;34.39;100111.41;1747815;82;21615;-66
2021/03/27 12:15:44;;;;;;;15.55;11.43;;;;;;;14.55;33.96;100119.53;1747647;82;21615;-68
2021/03/27 12:18:45;;;;;;;20.05;13.43;;;;;;;14.50;33.80;100113.73;1747498;82;21167;-67
2021/03/27 12:21:25;;;;;;;19.40;12.65;;;;;;;14.63;34.42;100108.25;1747863;82;21143;-68
2021/03/27 12:24:39;;;;;;;20.75;12.50;;;;;;;14.81;34.50;100106.39;1726753;82;21155;-67
2021/03/27 12:27:26;;;;;;;24.10;13.28;;;;;;;14.98;33.82;100105.02;1747713;82;21643;-67
2021/03/27 12:30:05;;;;;;;21.02;12.93;;;;;;;14.99;32.87;100102.72;1747864;82;21646;-68
2021/03/27 12:32:56;;;;;;;18.85;12.98;;;;;;;14.98;33.46;100102.35;1746375;82;21148;-68
2021/03/27 12:35:50;;;;;;;19.00;11.50;;;;;;;15.02;33.29;100102.45;1748806;82;21217;-66
2021/03/27 12:38:26;;;;;;;23.98;11.20;;;;;;;15.08;32.80;100091.28;1753519;82;21431;-67
2021/03/27 12:41:07;;;;;;;23.92;11.68;;;;;;;15.14;33.78;100097.91;1753417;82;21170;-67
2021/03/27 12:43:45;;;;;;;21.33;11.30;;;;;;;15.20;31.65;100098.72;1750085;82;21103;-67
2021/03/27 12:46:38;;;;;;;17.00;10.60;;;;;;;15.18;32.11;100101.98;1750746;82;21131;-67
2021/03/27 12:49:44;;;;;;;14.93;10.10;;;;;;;15.24;31.29;100101.01;1752848;82;21333;-67
2021/03/27 12:52:34;;;;;;;14.98;9.38;;;;;;;15.23;31.03;100103.31;1753047;82;21333;-67
2021/03/27 12:55:32;;;;;;;18.02;11.48;;;;;;;15.27;31.33;100103.90;1752985;82;21190;-67
2021/03/27 12:58:45;;;;;;;16.77;10.88;;;;;;;15.31;30.62;100103.16;1753359;82;21170;-67
2021/03/27 13:01:38;;;;;;;15.72;11.38;;;;;;;15.20;30.74;100105.38;1753327;82;21151;-67
2021/03/27 13:04:24;;;;;;;16.50;11.50;;;;;;;14.99;31.96;100106.21;1753351;82;21159;-67
2021/03/27 13:06:58;;;;;;;17.95;10.93;;;;;;;14.83;31.76;100102.63;1753057;82;21107;-67
2021/03/27 13:10:17;;;;;;;19.15;12.00;;;;;;;14.76;32.14;100100.14;1752566;80;21658;-67